createdAt,value
2017-11-15T00:00:17.141Z,4.47
2017-11-15T00:00:57.625Z,4.52
2017-11-15T00:01:38.118Z,4.52
2017-11-15T00:02:18.572Z,4.62
2017-11-15T00:02:59.057Z,4.72
2017-11-15T00:03:39.533Z,4.62
2017-11-15T00:04:20.017Z,4.52
2017-11-15T00:05:00.499Z,4.33
2017-11-15T00:05:40.987Z,4.36
2017-11-15T00:06:21.468Z,4.33
2017-11-15T00:07:01.942Z,4.33
2017-11-15T00:07:42.418Z,4.34
2017-11-15T00:08:22.900Z,4.3
2017-11-15T00:09:03.395Z,4.45
2017-11-15T00:09:43.879Z,4.55
2017-11-15T00:10:24.360Z,4.52
2017-11-15T00:11:04.842Z,4.62
2017-11-15T00:11:45.331Z,4.6
2017-11-15T00:12:25.814Z,4.55
2017-11-15T00:13:06.305Z,4.34
2017-11-15T00:13:46.788Z,4.52
2017-11-15T00:14:27.267Z,4.52
2017-11-15T00:15:07.765Z,4.54
2017-11-15T00:15:48.252Z,4.69
2017-11-15T00:16:28.717Z,4.6
2017-11-15T00:17:09.201Z,4.66
2017-11-15T00:17:49.680Z,4.6
2017-11-15T00:18:30.196Z,4.52
2017-11-15T00:19:10.619Z,4.37
2017-11-15T00:19:51.108Z,4.52
2017-11-15T00:20:31.613Z,4.33
2017-11-15T00:21:12.092Z,4.11
2017-11-15T00:21:52.564Z,4.14
2017-11-15T00:22:33.046Z,4.22
2017-11-15T00:23:13.521Z,4.22
2017-11-15T00:23:54.016Z,4.24
2017-11-15T00:24:34.497Z,4.11
2017-11-15T00:25:14.991Z,4.05
2017-11-15T00:25:55.499Z,3.96
2017-11-15T00:26:35.956Z,4
2017-11-15T00:27:16.441Z,3.98
2017-11-15T00:27:56.926Z,4.16
2017-11-15T00:28:37.394Z,4.15
2017-11-15T00:29:17.884Z,4.14
2017-11-15T00:29:58.370Z,4.18
2017-11-15T00:30:38.856Z,4.34
2017-11-15T00:31:19.355Z,4.22
2017-11-15T00:31:59.837Z,4.24
2017-11-15T00:32:40.319Z,4.27
2017-11-15T00:33:20.789Z,4.24
2017-11-15T00:34:01.284Z,4.4
2017-11-15T00:34:41.761Z,4.27
2017-11-15T00:35:22.240Z,4.33
2017-11-15T00:36:02.721Z,4.32
2017-11-15T00:36:43.217Z,4.32
2017-11-15T00:37:23.687Z,4.33
2017-11-15T00:38:04.153Z,4.27
2017-11-15T00:38:44.646Z,4.42
2017-11-15T00:39:25.127Z,4.4
2017-11-15T00:40:05.609Z,4.33
2017-11-15T00:40:46.090Z,4.26
2017-11-15T00:41:26.588Z,4.44
2017-11-15T00:42:07.078Z,4.2
2017-11-15T00:42:47.545Z,3.97
2017-11-15T00:43:28.028Z,3.98
2017-11-15T00:44:08.523Z,4.02
2017-11-15T00:44:49.005Z,4.05
2017-11-15T00:45:29.492Z,3.91
2017-11-15T00:46:09.973Z,4
2017-11-15T00:46:50.443Z,3.94
2017-11-15T00:47:30.938Z,3.93
2017-11-15T00:48:11.410Z,4.04
2017-11-15T00:48:51.885Z,4.09
2017-11-15T00:49:32.370Z,4.16
2017-11-15T00:50:12.835Z,4.09
2017-11-15T00:50:53.319Z,4.26
2017-11-15T00:51:33.800Z,4.27
2017-11-15T00:52:14.288Z,4.26
2017-11-15T00:52:54.772Z,4.27
2017-11-15T00:53:35.263Z,4.37
2017-11-15T00:54:15.743Z,4.34
2017-11-15T00:54:56.216Z,4.36
2017-11-15T00:55:36.702Z,4.44
2017-11-15T00:56:17.181Z,4.34
2017-11-15T00:56:57.672Z,4.52
2017-11-15T00:57:38.165Z,4.24
2017-11-15T00:58:18.640Z,4.33
2017-11-15T00:58:59.129Z,4.37
2017-11-15T00:59:39.617Z,4.29
2017-11-15T01:00:20.095Z,4.33
2017-11-15T01:01:00.591Z,4.47
2017-11-15T01:01:41.085Z,4.54
2017-11-15T01:02:21.573Z,4.52
2017-11-15T01:03:02.054Z,4.55
2017-11-15T01:03:42.526Z,4.59
2017-11-15T01:04:23.027Z,4.44
2017-11-15T01:05:03.509Z,4.44
2017-11-15T01:05:44.001Z,4.45
2017-11-15T01:06:24.496Z,4.5
2017-11-15T01:07:04.986Z,4.51
2017-11-15T01:07:45.451Z,4.5
2017-11-15T01:08:25.949Z,4.42
2017-11-15T01:09:06.432Z,4.29
2017-11-15T01:09:46.920Z,4.5
2017-11-15T01:10:27.397Z,4.4
2017-11-15T01:11:07.902Z,4.48
2017-11-15T01:11:48.388Z,4.44
2017-11-15T01:12:28.851Z,4.45
2017-11-15T01:13:09.340Z,4.32
2017-11-15T01:13:49.811Z,4.36
2017-11-15T01:14:30.303Z,4.32
2017-11-15T01:15:10.792Z,4.27
2017-11-15T01:15:51.277Z,4.24
2017-11-15T01:16:31.753Z,4.18
2017-11-15T01:17:12.239Z,4.29
2017-11-15T01:17:52.725Z,4.2
2017-11-15T01:18:33.221Z,4.33
2017-11-15T01:19:13.721Z,4.4
2017-11-15T01:19:54.206Z,4.24
2017-11-15T01:20:34.668Z,4.22
2017-11-15T01:21:15.168Z,4.24
2017-11-15T01:21:55.654Z,4.22
2017-11-15T01:22:36.144Z,4.32
2017-11-15T01:23:16.633Z,4.22
2017-11-15T01:23:57.137Z,4.12
2017-11-15T01:24:37.617Z,4
2017-11-15T01:25:18.110Z,3.94
2017-11-15T01:25:58.613Z,3.96
2017-11-15T01:26:39.081Z,3.87
2017-11-15T01:27:19.565Z,3.78
2017-11-15T01:28:00.048Z,3.96
2017-11-15T01:28:40.560Z,3.96
2017-11-15T01:29:21.021Z,4
2017-11-15T01:30:01.506Z,4.14
2017-11-15T01:30:41.982Z,4.15
2017-11-15T01:31:22.466Z,4.18
2017-11-15T01:32:02.963Z,4.15
2017-11-15T01:32:43.463Z,4.11
2017-11-15T01:33:23.964Z,4.12
2017-11-15T01:34:04.445Z,3.88
2017-11-15T01:34:44.922Z,3.7
2017-11-15T01:35:25.398Z,3.76
2017-11-15T01:36:05.874Z,3.73
2017-11-15T01:36:46.364Z,3.61
2017-11-15T01:37:26.840Z,3.68
2017-11-15T01:38:07.315Z,3.52
2017-11-15T01:38:47.797Z,3.65
2017-11-15T01:39:28.289Z,3.79
2017-11-15T01:40:08.771Z,3.84
2017-11-15T01:40:49.266Z,3.8
2017-11-15T01:41:29.757Z,3.79
2017-11-15T01:42:10.245Z,3.65
2017-11-15T01:42:50.723Z,3.5
2017-11-15T01:43:31.188Z,3.55
2017-11-15T01:44:11.671Z,3.61
2017-11-15T01:44:52.157Z,3.66
2017-11-15T01:45:32.641Z,3.65
2017-11-15T01:46:13.126Z,3.78
2017-11-15T01:46:53.611Z,3.86
2017-11-15T01:47:34.116Z,3.8
2017-11-15T01:48:14.591Z,3.88
2017-11-15T01:48:55.074Z,3.72
2017-11-15T01:49:35.595Z,3.66
2017-11-15T01:50:16.067Z,3.57
2017-11-15T01:50:56.557Z,3.6
2017-11-15T01:51:37.044Z,3.62
2017-11-15T01:52:17.529Z,3.58
2017-11-15T01:52:58.009Z,3.51
2017-11-15T01:53:38.486Z,3.52
2017-11-15T01:54:18.982Z,3.69
2017-11-15T01:54:59.461Z,3.6
2017-11-15T01:55:39.960Z,3.72
2017-11-15T01:56:20.465Z,3.68
2017-11-15T01:57:00.953Z,3.79
2017-11-15T01:57:41.418Z,3.83
2017-11-15T01:58:21.906Z,3.79
2017-11-15T01:59:02.391Z,3.91
2017-11-15T01:59:42.879Z,3.9
2017-11-15T02:00:23.357Z,3.97
2017-11-15T02:01:03.835Z,3.86
2017-11-15T02:01:44.327Z,3.93
2017-11-15T02:02:24.810Z,3.97
2017-11-15T02:03:05.295Z,3.93
2017-11-15T02:03:45.784Z,3.94
2017-11-15T02:04:26.283Z,3.84
2017-11-15T02:05:06.761Z,3.8
2017-11-15T02:05:47.251Z,3.76
2017-11-15T02:06:27.739Z,3.52
2017-11-15T02:07:08.232Z,3.62
2017-11-15T02:07:48.705Z,3.68
2017-11-15T02:08:29.182Z,3.69
2017-11-15T02:09:09.678Z,3.68
2017-11-15T02:09:50.170Z,3.78
2017-11-15T02:10:30.649Z,3.72
2017-11-15T02:11:11.129Z,3.72
2017-11-15T02:11:51.610Z,3.68
2017-11-15T02:12:32.098Z,3.69
2017-11-15T02:13:12.575Z,3.55
2017-11-15T02:13:53.056Z,3.33
2017-11-15T02:14:33.542Z,3.35
2017-11-15T02:15:14.033Z,3.33
2017-11-15T02:15:54.513Z,3.32
2017-11-15T02:16:35.006Z,3.36
2017-11-15T02:17:15.492Z,3.36
2017-11-15T02:17:55.969Z,3.51
2017-11-15T02:18:36.447Z,3.52
2017-11-15T02:19:16.938Z,3.65
2017-11-15T02:19:57.423Z,3.45
2017-11-15T02:20:37.903Z,3.43
2017-11-15T02:21:18.388Z,3.32
2017-11-15T02:21:58.881Z,3.45
2017-11-15T02:22:39.376Z,3.33
2017-11-15T02:23:19.849Z,3.51
2017-11-15T02:24:00.333Z,3.5
2017-11-15T02:24:40.821Z,3.51
2017-11-15T02:25:21.302Z,3.58
2017-11-15T02:26:01.785Z,3.54
2017-11-15T02:26:42.275Z,3.68
2017-11-15T02:27:22.765Z,3.58
2017-11-15T02:28:03.251Z,3.52
2017-11-15T02:28:43.725Z,3.57
2017-11-15T02:29:24.227Z,3.58
2017-11-15T02:30:04.719Z,3.55
2017-11-15T02:30:45.209Z,3.62
2017-11-15T02:31:25.688Z,3.78
2017-11-15T02:32:06.173Z,3.66
2017-11-15T02:32:46.654Z,3.83
2017-11-15T02:33:27.145Z,3.88
2017-11-15T02:34:07.626Z,3.62
2017-11-15T02:34:48.111Z,3.7
2017-11-15T02:35:28.596Z,3.66
2017-11-15T02:36:09.074Z,3.45
2017-11-15T02:36:49.557Z,3.52
2017-11-15T02:37:30.050Z,3.58
2017-11-15T02:38:10.524Z,3.62
2017-11-15T02:38:51.007Z,3.75
2017-11-15T02:39:31.487Z,3.55
2017-11-15T02:40:11.987Z,3.6
2017-11-15T02:40:52.469Z,3.6
2017-11-15T02:41:32.928Z,3.62
2017-11-15T02:42:13.412Z,3.43
2017-11-15T02:42:53.898Z,3.45
2017-11-15T02:43:34.373Z,3.26
2017-11-15T02:44:14.858Z,3.24
2017-11-15T02:44:55.329Z,3.24
2017-11-15T02:45:35.819Z,3.21
2017-11-15T02:46:16.310Z,3.23
2017-11-15T02:46:56.799Z,3.15
2017-11-15T02:47:37.282Z,3.11
2017-11-15T02:48:17.752Z,3.21
2017-11-15T02:48:58.247Z,3.2
2017-11-15T02:49:38.740Z,3.17
2017-11-15T02:50:19.216Z,3.2
2017-11-15T02:50:59.706Z,3.23
2017-11-15T02:51:40.204Z,3.18
2017-11-15T02:52:20.682Z,3.26
2017-11-15T02:53:01.201Z,3.31
2017-11-15T02:53:41.697Z,3.28
2017-11-15T02:54:22.173Z,3.29
2017-11-15T02:55:02.667Z,3.36
2017-11-15T02:55:43.149Z,3.48
2017-11-15T02:56:23.626Z,3.48
2017-11-15T02:57:04.110Z,3.33
2017-11-15T02:57:44.597Z,3.45
2017-11-15T02:58:25.102Z,3.39
2017-11-15T02:59:05.594Z,3.42
2017-11-15T02:59:46.099Z,3.48
2017-11-15T03:00:26.571Z,3.47
2017-11-15T03:01:07.056Z,3.43
2017-11-15T03:01:47.534Z,3.4
2017-11-15T03:02:28.025Z,3.45
2017-11-15T03:03:08.508Z,3.51
2017-11-15T03:03:48.988Z,3.51
2017-11-15T03:04:29.476Z,3.65
2017-11-15T03:05:09.965Z,3.6
2017-11-15T03:05:50.446Z,3.51
2017-11-15T03:06:30.924Z,3.52
2017-11-15T03:07:11.400Z,3.57
2017-11-15T03:07:51.896Z,3.61
2017-11-15T03:08:32.386Z,3.68
2017-11-15T03:09:12.866Z,3.78
2017-11-15T03:09:53.353Z,3.84
2017-11-15T03:10:33.840Z,3.87
2017-11-15T03:11:14.319Z,3.76
2017-11-15T03:11:54.800Z,3.75
2017-11-15T03:12:35.285Z,3.83
2017-11-15T03:13:15.765Z,3.75
2017-11-15T03:13:56.254Z,3.9
2017-11-15T03:14:36.737Z,3.76
2017-11-15T03:15:17.216Z,3.88
2017-11-15T03:15:57.702Z,3.72
2017-11-15T03:16:38.188Z,3.76
2017-11-15T03:17:19.471Z,3.7
2017-11-15T03:17:59.950Z,3.73
2017-11-15T03:18:40.427Z,3.7
2017-11-15T03:19:20.908Z,3.66
2017-11-15T03:20:01.395Z,3.76
2017-11-15T03:20:41.890Z,3.7
2017-11-15T03:21:22.361Z,3.7
2017-11-15T03:22:02.850Z,3.76
2017-11-15T03:22:43.316Z,3.83
2017-11-15T03:23:23.799Z,3.72
2017-11-15T03:24:04.277Z,3.75
2017-11-15T03:24:44.759Z,3.61
2017-11-15T03:25:25.248Z,3.76
2017-11-15T03:26:05.725Z,3.75
2017-11-15T03:26:46.202Z,3.62
2017-11-15T03:27:26.687Z,3.61
2017-11-15T03:28:07.186Z,3.58
2017-11-15T03:28:47.661Z,3.8
2017-11-15T03:29:28.148Z,3.86
2017-11-15T03:30:08.646Z,3.8
2017-11-15T03:30:49.129Z,3.78
2017-11-15T03:31:30.598Z,3.8
2017-11-15T03:32:11.084Z,3.8
2017-11-15T03:32:51.569Z,3.72
2017-11-15T03:33:32.049Z,3.62
2017-11-15T03:34:12.536Z,3.55
2017-11-15T03:34:53.010Z,3.55
2017-11-15T03:36:40.513Z,3.5
2017-11-15T03:37:20.924Z,3.6
2017-11-15T03:38:01.430Z,3.66
2017-11-15T03:38:41.881Z,3.6
2017-11-15T03:39:22.349Z,3.54
2017-11-15T03:40:02.832Z,3.52
2017-11-15T03:40:43.329Z,3.65
2017-11-15T03:41:23.821Z,3.68
2017-11-15T03:42:04.301Z,3.7
2017-11-15T03:42:44.752Z,3.51
2017-11-15T03:43:25.212Z,3.61
2017-11-15T03:44:05.664Z,3.51
2017-11-15T03:44:46.118Z,3.65
2017-11-15T03:45:26.593Z,3.68
2017-11-15T03:46:07.076Z,3.66
2017-11-15T03:46:47.563Z,3.57
2017-11-15T03:47:28.036Z,3.78
2017-11-15T03:48:08.556Z,3.68
2017-11-15T03:48:49.052Z,3.72
2017-11-15T03:49:29.516Z,3.57
2017-11-15T03:50:09.986Z,3.68
2017-11-15T03:50:50.463Z,3.61
2017-11-15T03:51:30.934Z,3.51
2017-11-15T03:52:11.415Z,3.48
2017-11-15T03:52:51.890Z,3.47
2017-11-15T03:53:32.344Z,3.52
2017-11-15T03:54:12.800Z,3.66
2017-11-15T03:54:53.232Z,3.62
2017-11-15T03:55:33.654Z,3.47
2017-11-15T03:56:14.118Z,3.45
2017-11-15T03:56:54.589Z,3.48
2017-11-15T03:57:35.052Z,3.47
2017-11-15T03:58:15.528Z,3.5
2017-11-15T03:58:56.057Z,3.48
2017-11-15T03:59:36.499Z,3.55
2017-11-15T04:00:16.984Z,3.54
2017-11-15T04:00:57.460Z,3.43
2017-11-15T04:01:37.936Z,3.47
2017-11-15T04:02:18.376Z,3.31
2017-11-15T04:02:58.825Z,3.24
2017-11-15T04:03:39.326Z,3.36
2017-11-15T04:05:31.832Z,3.55
2017-11-15T04:06:12.306Z,3.43
2017-11-15T04:06:52.783Z,3.24
2017-11-15T04:07:33.268Z,3.17
2017-11-15T04:08:13.753Z,3.32
2017-11-15T04:08:54.236Z,3.35
2017-11-15T04:09:34.709Z,3.31
2017-11-15T04:10:15.183Z,3.28
2017-11-15T04:10:55.671Z,3.26
2017-11-15T04:11:36.131Z,3.43
2017-11-15T04:12:16.619Z,3.24
2017-11-15T04:12:57.102Z,3.14
2017-11-15T04:13:37.575Z,3.13
2017-11-15T04:14:18.062Z,3.11
2017-11-15T04:14:58.541Z,3.14
2017-11-15T04:15:39.017Z,3.17
2017-11-15T04:16:19.486Z,3.05
2017-11-15T04:16:59.972Z,3
2017-11-15T04:17:40.445Z,3.02
2017-11-15T04:18:20.954Z,3.03
2017-11-15T04:19:01.426Z,3.06
2017-11-15T04:19:41.906Z,3.05
2017-11-15T04:20:22.422Z,3.05
2017-11-15T04:21:02.873Z,3
2017-11-15T04:21:43.352Z,3.13
2017-11-15T04:22:23.803Z,3.06
2017-11-15T04:23:04.272Z,3.17
2017-11-15T04:23:44.734Z,3.13
2017-11-15T04:24:25.200Z,3.14
2017-11-15T04:25:05.670Z,2.97
2017-11-15T04:25:46.136Z,3.05
2017-11-15T04:26:26.575Z,3.06
2017-11-15T04:27:06.999Z,3.11
2017-11-15T04:27:47.443Z,3.06
2017-11-15T04:28:27.859Z,3.18
2017-11-15T04:29:08.312Z,3.2
2017-11-15T04:29:48.763Z,2.99
2017-11-15T04:30:29.218Z,2.89
2017-11-15T04:31:09.621Z,2.92
2017-11-15T04:31:50.108Z,2.9
2017-11-15T04:32:30.581Z,2.93
2017-11-15T04:33:11.073Z,3.11
2017-11-15T04:33:51.554Z,3.05
2017-11-15T04:34:32.051Z,3.15
2017-11-15T04:35:12.525Z,3.18
2017-11-15T04:35:53.019Z,3.1
2017-11-15T04:36:33.486Z,3.15
2017-11-15T04:37:13.935Z,3.15
2017-11-15T04:37:54.354Z,3.11
2017-11-15T04:38:34.824Z,3.08
2017-11-15T04:39:15.291Z,3.05
2017-11-15T04:39:55.770Z,3.05
2017-11-15T04:40:36.247Z,3.14
2017-11-15T04:41:16.722Z,3.14
2017-11-15T04:41:57.167Z,2.97
2017-11-15T04:42:37.605Z,2.97
2017-11-15T04:43:18.039Z,3.05
2017-11-15T04:43:58.485Z,3.2
2017-11-15T04:44:38.934Z,3.18
2017-11-15T04:45:19.363Z,3.15
2017-11-15T04:45:59.819Z,3.11
2017-11-15T04:46:40.273Z,3.2
2017-11-15T04:47:20.744Z,3.14
2017-11-15T04:48:01.170Z,3.05
2017-11-15T04:48:41.644Z,3.06
2017-11-15T04:49:22.079Z,2.99
2017-11-15T04:50:02.525Z,3.06
2017-11-15T04:50:42.971Z,3.08
2017-11-15T04:51:23.424Z,3.08
2017-11-15T04:53:21.045Z,3.1
2017-11-15T04:54:01.483Z,3.23
2017-11-15T04:54:41.978Z,3.2
2017-11-15T04:55:22.462Z,3.24
2017-11-15T04:56:02.931Z,3.17
2017-11-15T04:56:43.477Z,3.2
2017-11-15T04:57:23.946Z,3.18
2017-11-15T04:58:04.433Z,3.28
2017-11-15T04:58:44.925Z,3.26
2017-11-15T04:59:25.428Z,3.18
2017-11-15T05:00:05.861Z,3.28
2017-11-15T05:00:46.327Z,3.28
2017-11-15T05:01:26.826Z,3.33
2017-11-15T05:02:07.320Z,3.32
2017-11-15T05:02:47.777Z,3.35
2017-11-15T05:03:28.241Z,3.32
2017-11-15T05:04:08.715Z,3.28
2017-11-15T05:04:49.183Z,3.32
2017-11-15T05:05:29.641Z,3.29
2017-11-15T05:06:10.118Z,3.2
2017-11-15T05:06:50.582Z,3.18
2017-11-15T05:07:31.057Z,3.2
2017-11-15T05:08:11.530Z,3.4
2017-11-15T05:08:52.004Z,3.39
2017-11-15T05:09:32.477Z,3.26
2017-11-15T05:10:12.949Z,3.26
2017-11-15T05:10:53.412Z,3.11
2017-11-15T05:11:33.891Z,3.18
2017-11-15T05:12:14.366Z,3.28
2017-11-15T05:12:54.840Z,3.18
2017-11-15T05:14:47.387Z,3.28
2017-11-15T05:15:27.850Z,3.33
2017-11-15T05:16:08.343Z,3.26
2017-11-15T05:16:48.797Z,3.17
2017-11-15T05:17:29.277Z,3.17
2017-11-15T05:18:09.754Z,3.1
2017-11-15T05:18:50.241Z,3.08
2017-11-15T05:19:30.738Z,2.95
2017-11-15T05:20:11.221Z,3.02
2017-11-15T05:20:51.741Z,2.9
2017-11-15T05:21:32.190Z,2.92
2017-11-15T05:22:12.722Z,2.95
2017-11-15T05:22:53.204Z,3.06
2017-11-15T05:23:33.687Z,3.14
2017-11-15T05:24:14.170Z,3.17
2017-11-15T05:24:54.634Z,3.28
2017-11-15T05:25:35.116Z,3.06
2017-11-15T05:26:15.567Z,3.1
2017-11-15T05:26:56.049Z,3.05
2017-11-15T05:27:36.530Z,3.14
2017-11-15T05:28:17.019Z,3.13
2017-11-15T05:28:57.487Z,3.17
2017-11-15T05:29:37.946Z,3.05
2017-11-15T05:30:18.452Z,2.95
2017-11-15T05:30:58.922Z,2.99
2017-11-15T05:31:39.412Z,2.89
2017-11-15T05:32:19.936Z,2.97
2017-11-15T05:33:00.425Z,3
2017-11-15T05:33:40.903Z,2.93
2017-11-15T05:34:21.396Z,2.87
2017-11-15T05:35:01.877Z,2.96
2017-11-15T05:35:42.368Z,2.95
2017-11-15T05:36:22.850Z,2.95
2017-11-15T05:37:03.293Z,2.87
2017-11-15T05:37:43.764Z,2.92
2017-11-15T05:38:24.245Z,2.92
2017-11-15T05:39:04.733Z,2.87
2017-11-15T05:39:45.220Z,2.9
2017-11-15T05:40:25.693Z,2.99
2017-11-15T05:41:06.175Z,2.96
2017-11-15T05:41:46.652Z,2.97
2017-11-15T05:42:27.206Z,2.75
2017-11-15T05:43:07.628Z,2.85
2017-11-15T05:43:48.112Z,2.84
2017-11-15T05:44:28.602Z,2.75
2017-11-15T05:45:09.104Z,2.69
2017-11-15T05:45:49.575Z,2.9
2017-11-15T05:46:30.053Z,2.93
2017-11-15T05:47:10.558Z,2.85
2017-11-15T05:47:51.027Z,2.96
2017-11-15T05:49:38.563Z,2.95
2017-11-15T05:50:19.018Z,3.13
2017-11-15T05:50:59.524Z,3.13
2017-11-15T05:51:40.021Z,2.99
2017-11-15T05:52:20.512Z,3.05
2017-11-15T05:53:00.997Z,3.05
2017-11-15T05:53:41.481Z,3.11
2017-11-15T05:54:21.973Z,3.1
2017-11-15T05:55:02.446Z,3.14
2017-11-15T05:55:42.911Z,3.21
2017-11-15T05:56:23.401Z,3.08
2017-11-15T05:57:03.897Z,2.97
2017-11-15T05:57:44.392Z,3.02
2017-11-15T05:58:24.879Z,3.13
2017-11-15T05:59:05.357Z,3.18
2017-11-15T05:59:45.832Z,3.1
2017-11-15T06:00:26.289Z,3.17
2017-11-15T06:01:06.765Z,3.14
2017-11-15T06:01:47.228Z,3.14
2017-11-15T06:02:27.687Z,3.26
2017-11-15T06:03:08.164Z,3.32
2017-11-15T06:03:48.595Z,3.26
2017-11-15T06:04:29.038Z,3.23
2017-11-15T06:05:09.497Z,3.18
2017-11-15T06:05:49.975Z,3.26
2017-11-15T06:06:30.433Z,3.21
2017-11-15T06:08:28.015Z,3.13
2017-11-15T06:09:08.475Z,3.13
2017-11-15T06:09:48.990Z,3.17
2017-11-15T06:10:29.483Z,3.13
2017-11-15T06:11:10.169Z,3.17
2017-11-15T06:11:50.504Z,3.14
2017-11-15T06:12:30.997Z,3.17
2017-11-15T06:13:11.404Z,3.18
2017-11-15T06:13:51.823Z,3.14
2017-11-15T06:14:32.314Z,3.21
2017-11-15T06:15:12.864Z,3.13
2017-11-15T06:15:53.267Z,3.08
2017-11-15T06:16:33.717Z,3.24
2017-11-15T06:17:14.177Z,3.21
2017-11-15T06:17:54.636Z,3.21
2017-11-15T06:18:35.194Z,3.23
2017-11-15T06:19:15.735Z,3.21
2017-11-15T06:19:56.178Z,3.24
2017-11-15T06:20:36.563Z,3.06
2017-11-15T06:21:17.076Z,3.15
2017-11-15T06:21:57.570Z,3.14
2017-11-15T06:22:37.976Z,3.15
2017-11-15T06:23:18.554Z,3.28
2017-11-15T06:23:58.997Z,3.13
2017-11-15T06:24:39.530Z,3.06
2017-11-15T06:25:19.990Z,3.06
2017-11-15T06:26:00.454Z,3.23
2017-11-15T06:26:40.821Z,3.06
2017-11-15T06:28:33.401Z,2.92
2017-11-15T06:29:13.844Z,2.99
2017-11-15T06:29:54.310Z,3.05
2017-11-15T06:30:34.773Z,3.05
2017-11-15T06:31:15.277Z,2.92
2017-11-15T06:31:55.783Z,2.95
2017-11-15T06:32:36.311Z,2.95
2017-11-15T06:33:16.658Z,2.92
2017-11-15T06:33:57.277Z,2.95
2017-11-15T06:34:37.700Z,2.87
2017-11-15T06:35:18.132Z,3.02
2017-11-15T06:35:58.618Z,2.84
2017-11-15T06:36:39.156Z,2.9
2017-11-15T06:37:19.692Z,2.87
2017-11-15T06:38:00.211Z,2.79
2017-11-15T06:38:40.713Z,2.64
2017-11-15T06:39:21.226Z,2.74
2017-11-15T06:40:01.808Z,2.71
2017-11-15T06:40:42.379Z,2.61
2017-11-15T06:41:22.977Z,2.64
2017-11-15T06:42:03.532Z,2.64
2017-11-15T06:42:44.119Z,2.66
2017-11-15T06:43:24.648Z,2.6
2017-11-15T06:44:05.240Z,2.89
2017-11-15T06:44:45.853Z,2.81
2017-11-15T06:45:26.498Z,2.71
2017-11-15T06:46:07.111Z,2.97
2017-11-15T06:46:47.698Z,2.93
2017-11-15T06:47:28.296Z,2.85
2017-11-15T06:48:08.936Z,2.85
2017-11-15T06:48:49.550Z,2.99
2017-11-15T06:49:30.121Z,2.99
2017-11-15T06:50:10.693Z,3.13
2017-11-15T06:50:51.264Z,3.02
2017-11-15T06:51:31.825Z,2.87
2017-11-15T06:52:12.392Z,2.95
2017-11-15T06:52:52.960Z,3
2017-11-15T06:53:33.584Z,2.96
2017-11-15T06:54:14.154Z,2.96
2017-11-15T06:54:54.723Z,3.06
2017-11-15T06:55:35.344Z,3.06
2017-11-15T06:56:16.011Z,3.11
2017-11-15T06:56:56.651Z,3.05
2017-11-15T06:57:37.258Z,3.05
2017-11-15T06:58:17.923Z,3.06
2017-11-15T06:58:58.497Z,3.06
2017-11-15T06:59:39.009Z,3.03
2017-11-15T07:00:19.565Z,3.05
2017-11-15T07:01:00.182Z,3.05
2017-11-15T07:01:40.737Z,3.06
2017-11-15T07:02:21.330Z,3.13
2017-11-15T07:03:01.966Z,3.03
2017-11-15T07:03:42.573Z,3.02
2017-11-15T07:04:23.019Z,3
2017-11-15T07:05:03.533Z,3.08
2017-11-15T07:05:44.094Z,3.03
2017-11-15T07:06:24.657Z,3.05
2017-11-15T07:07:05.159Z,2.96
2017-11-15T07:07:45.738Z,2.9
2017-11-15T07:08:26.313Z,3.15
2017-11-15T07:09:06.847Z,3.06
2017-11-15T07:09:47.462Z,3.03
2017-11-15T07:10:28.001Z,3.06
2017-11-15T07:11:08.619Z,3.1
2017-11-15T07:11:49.186Z,3.18
2017-11-15T07:12:29.766Z,3.21
2017-11-15T07:13:10.365Z,3.21
2017-11-15T07:13:50.938Z,3.18
2017-11-15T07:14:31.526Z,3.18
2017-11-15T07:15:12.080Z,3.23
2017-11-15T07:15:52.639Z,3.23
2017-11-15T07:16:33.157Z,3.26
2017-11-15T07:17:13.695Z,3.2
2017-11-15T07:17:54.261Z,3.18
2017-11-15T07:18:34.760Z,3.24
2017-11-15T07:19:15.207Z,3.18
2017-11-15T07:19:55.789Z,3.29
2017-11-15T07:20:36.387Z,3.32
2017-11-15T07:21:16.897Z,3.4
2017-11-15T07:21:58.258Z,3.32
2017-11-15T07:22:38.773Z,3.47
2017-11-15T07:23:19.397Z,3.36
2017-11-15T07:24:00.017Z,3.51
2017-11-15T07:24:40.663Z,3.47
2017-11-15T07:25:21.191Z,3.45
2017-11-15T07:26:01.787Z,3.43
2017-11-15T07:26:42.330Z,3.54
2017-11-15T07:27:22.926Z,3.55
2017-11-15T07:28:03.478Z,3.57
2017-11-15T07:28:44.014Z,3.52
2017-11-15T07:29:24.459Z,3.62
2017-11-15T07:30:04.919Z,3.62
2017-11-15T07:32:17.651Z,3.8
2017-11-15T07:32:58.118Z,3.69
2017-11-15T07:33:38.594Z,3.73
2017-11-15T07:34:19.077Z,3.75
2017-11-15T07:34:59.572Z,3.75
2017-11-15T07:35:40.070Z,3.6
2017-11-15T07:36:20.574Z,3.47
2017-11-15T07:37:01.036Z,3.45
2017-11-15T07:37:41.588Z,3.51
2017-11-15T07:38:22.142Z,3.47
2017-11-15T07:39:02.706Z,3.5
2017-11-15T07:39:43.229Z,3.57
2017-11-15T07:40:23.787Z,3.72
2017-11-15T07:41:04.264Z,3.84
2017-11-15T07:42:51.747Z,3.75
2017-11-15T07:43:32.218Z,3.78
2017-11-15T07:44:12.698Z,3.87
2017-11-15T07:44:53.205Z,3.72
2017-11-15T07:45:33.697Z,3.84
2017-11-15T07:46:14.186Z,3.87
2017-11-15T07:46:54.762Z,3.84
2017-11-15T07:47:35.261Z,3.84
2017-11-15T07:48:15.707Z,3.94
2017-11-15T07:48:56.137Z,3.88
2017-11-15T07:49:36.572Z,3.94
2017-11-15T07:50:17.029Z,3.91
2017-11-15T07:50:57.502Z,3.91
2017-11-15T07:51:37.997Z,4.06
2017-11-15T07:52:18.530Z,3.98
2017-11-15T07:52:58.956Z,3.98
2017-11-15T07:53:39.424Z,3.96
2017-11-15T07:54:19.943Z,3.97
2017-11-15T07:55:00.347Z,3.94
2017-11-15T07:55:40.782Z,4
2017-11-15T07:56:21.313Z,3.94
2017-11-15T07:57:01.799Z,4
2017-11-15T07:57:42.250Z,3.93
2017-11-15T07:58:22.679Z,3.84
2017-11-15T07:59:03.082Z,3.86
2017-11-15T07:59:43.570Z,4.06
2017-11-15T08:00:23.982Z,4.02
2017-11-15T08:01:04.462Z,3.98
2017-11-15T08:02:41.821Z,4.14
2017-11-15T08:03:22.283Z,4.22
2017-11-15T08:04:02.805Z,4.29
2017-11-15T08:04:43.226Z,4.26
2017-11-15T08:05:23.664Z,4.42
2017-11-15T08:06:04.201Z,4.44
2017-11-15T08:06:44.773Z,4.42
2017-11-15T08:07:25.364Z,4.44
2017-11-15T08:08:05.885Z,4.42
2017-11-15T08:08:46.500Z,4.45
2017-11-15T08:09:27.125Z,4.27
2017-11-15T08:10:07.758Z,4.37
2017-11-15T08:10:48.299Z,4.27
2017-11-15T08:11:28.908Z,4.33
2017-11-15T08:12:09.538Z,4.5
2017-11-15T08:12:50.117Z,4.37
2017-11-15T08:13:30.701Z,4.55
2017-11-15T08:14:11.271Z,4.41
2017-11-15T08:14:52.950Z,4.58
2017-11-15T08:15:35.054Z,4.55
2017-11-15T08:17:12.447Z,4.62
2017-11-15T08:17:53.026Z,4.65
2017-11-15T08:18:33.531Z,4.59
2017-11-15T08:19:14.031Z,4.7
2017-11-15T08:19:54.530Z,4.52
2017-11-15T08:20:35.033Z,4.69
2017-11-15T08:21:15.543Z,4.69
2017-11-15T08:21:56.090Z,4.82
2017-11-15T08:22:36.522Z,4.89
2017-11-15T08:23:17.004Z,4.84
2017-11-15T08:23:57.566Z,4.88
2017-11-15T08:24:38.097Z,4.82
2017-11-15T08:25:18.721Z,4.78
2017-11-15T08:25:59.316Z,4.77
2017-11-15T08:26:39.961Z,4.96
2017-11-15T08:27:20.486Z,4.99
2017-11-15T08:28:01.076Z,4.86
2017-11-15T08:28:41.604Z,4.99
2017-11-15T08:29:22.199Z,5.02
2017-11-15T08:30:02.748Z,5.22
2017-11-15T08:30:43.281Z,5.21
2017-11-15T08:31:23.775Z,5.2
2017-11-15T08:32:04.311Z,5.35
2017-11-15T08:32:44.798Z,5.27
2017-11-15T08:33:25.334Z,5.3
2017-11-15T08:34:05.863Z,5.27
2017-11-15T08:34:46.302Z,5.25
2017-11-15T08:35:26.780Z,5.25
2017-11-15T08:36:07.433Z,5.21
2017-11-15T08:36:47.923Z,5.39
2017-11-15T08:37:28.515Z,5.39
2017-11-15T08:38:08.959Z,5.48
2017-11-15T08:40:06.828Z,5.58
2017-11-15T08:40:47.304Z,5.48
2017-11-15T08:41:27.829Z,5.64
2017-11-15T08:42:08.350Z,5.79
2017-11-15T08:42:48.889Z,5.6
2017-11-15T08:43:29.404Z,5.83
2017-11-15T08:44:09.888Z,5.81
2017-11-15T08:44:50.420Z,5.63
2017-11-15T08:45:31.099Z,5.74
2017-11-15T08:46:11.657Z,5.71
2017-11-15T08:46:52.178Z,5.56
2017-11-15T08:47:32.671Z,5.64
2017-11-15T08:48:13.242Z,5.71
2017-11-15T08:48:53.837Z,5.76
2017-11-15T08:49:34.366Z,5.67
2017-11-15T08:50:14.966Z,5.65
2017-11-15T08:50:55.596Z,5.65
2017-11-15T08:51:36.090Z,5.72
2017-11-15T08:52:16.539Z,5.53
2017-11-15T08:52:57.031Z,5.68
2017-11-15T08:53:37.629Z,5.64
2017-11-15T08:54:18.173Z,5.57
2017-11-15T08:54:59.534Z,5.53
2017-11-15T08:55:40.046Z,5.61
2017-11-15T08:57:17.416Z,5.6
2017-11-15T08:57:57.912Z,5.65
2017-11-15T08:58:38.390Z,5.83
2017-11-15T08:59:18.930Z,5.74
2017-11-15T08:59:59.451Z,5.81
2017-11-15T09:00:39.964Z,6.11
2017-11-15T09:01:20.450Z,6.08
2017-11-15T09:02:00.978Z,6.11
2017-11-15T09:02:41.587Z,6.06
2017-11-15T09:03:22.134Z,6.21
2017-11-15T09:04:02.628Z,6.18
2017-11-15T09:04:43.231Z,6.43
2017-11-15T09:05:23.814Z,6.21
2017-11-15T09:06:04.381Z,6.18
2017-11-15T09:06:45.020Z,6.15
2017-11-15T09:07:25.624Z,6.21
2017-11-15T09:08:06.910Z,6.18
2017-11-15T09:08:47.469Z,6.21
2017-11-15T09:09:27.961Z,6.37
2017-11-15T09:10:08.588Z,6.34
2017-11-15T09:10:49.204Z,6.21
2017-11-15T09:11:29.797Z,6.15
2017-11-15T09:12:10.415Z,6.19
2017-11-15T09:12:51.058Z,6.18
2017-11-15T09:13:32.464Z,6.17
2017-11-15T09:14:13.090Z,6.28
2017-11-15T09:14:53.737Z,6.48
2017-11-15T09:15:34.374Z,6.54
2017-11-15T09:16:15.017Z,6.52
2017-11-15T09:16:55.671Z,6.76